Time;durP1;ratioP1;P1;durP2;ratioP2;P2;SDS_P1;SDS_P2;PMS_P1;PMS_P2;Temp;Humidity;BMP_temperature;BMP_pressure;BME280_temperature;BME280_humidity;BME280_pressure;Samples;Min_cycle;Max_cycle;Signal;HPM_P1;HPM_P2
2021/06/23 00:00:24;;;;;;;14.52;11.88;;;;;;;23.90;80.22;100131.03;5014259;28;20025;-70
2021/06/23 00:02:50;;;;;;;17.48;12.57;;;;;;;23.81;81.18;100165.53;5031181;28;20025;-71
2021/06/23 00:05:16;;;;;;;18.40;13.20;;;;;;;22.97;84.11;100138.28;5030610;28;20390;-71
2021/06/23 00:07:42;;;;;;;15.88;13.25;;;;;;;23.25;84.11;100157.06;5030938;28;20017;-72
2021/06/23 00:10:08;;;;;;;17.00;12.75;;;;;;;23.58;82.93;100165.13;5031037;28;20024;-71
2021/06/23 00:12:34;;;;;;;14.82;13.23;;;;;;;23.74;81.74;100168.31;5043375;28;20387;-71
2021/06/23 00:14:59;;;;;;;14.65;13.07;;;;;;;23.61;82.16;100152.81;5033092;28;20021;-71
2021/06/23 00:17:28;;;;;;;14.40;12.88;;;;;;;23.77;81.87;100174.44;5050813;28;20083;-71
2021/06/23 00:19:53;;;;;;;14.43;12.98;;;;;;;23.61;82.15;100161.56;5050204;28;20086;-69
2021/06/23 00:22:18;;;;;;;14.60;13.05;;;;;;;23.09;83.63;100138.03;5050998;28;20463;-73
2021/06/23 00:24:44;;;;;;;15.07;13.57;;;;;;;23.42;83.54;100175.13;5033117;28;20380;-70
2021/06/23 00:27:09;;;;;;;15.70;14.07;;;;;;;23.17;83.35;100148.44;5051001;28;20516;-71
2021/06/23 00:29:35;;;;;;;15.65;14.25;;;;;;;23.11;84.53;100172.22;5050801;28;20517;-71
2021/06/23 00:32:03;;;;;;;15.88;14.38;;;;;;;23.00;84.89;100166.31;5050901;28;20032;-71
2021/06/23 00:34:30;;;;;;;16.60;14.15;;;;;;;23.17;83.90;100155.50;5050281;28;20063;-72
2021/06/23 00:36:55;;;;;;;17.23;14.77;;;;;;;23.38;83.06;100168.19;5050684;28;20021;-74
2021/06/23 00:39:22;;;;;;;16.27;14.68;;;;;;;23.28;83.04;100169.31;5050887;28;20017;-69
2021/06/23 00:41:47;;;;;;;15.77;14.27;;;;;;;23.17;84.12;100168.66;5050678;28;20021;-71
2021/06/23 00:44:13;;;;;;;18.20;14.98;;;;;;;22.67;85.19;100127.44;5050649;28;20021;-71
2021/06/23 00:46:41;;;;;;;17.20;15.40;;;;;;;22.78;86.00;100161.47;5047836;28;20438;-71
2021/06/23 00:49:07;;;;;;;16.77;15.13;;;;;;;22.62;86.99;100171.41;5043526;28;20041;-72
2021/06/23 00:51:33;;;;;;;17.65;15.95;;;;;;;22.42;87.84;100167.34;5031022;28;20025;-69
2021/06/23 00:53:59;;;;;;;18.17;16.30;;;;;;;22.51;88.00;100166.31;5030461;28;20029;-71
2021/06/23 00:56:33;;;;;;;19.08;15.93;;;;;;;22.54;87.24;100153.13;5030889;28;20386;-71
2021/06/23 00:58:59;;;;;;;18.63;16.65;;;;;;;22.46;87.31;100142.72;5034482;28;20049;-68
2021/06/23 01:01:26;;;;;;;16.67;15.07;;;;;;;22.36;88.28;100163.91;5016765;28;20423;-69
2021/06/23 01:03:53;;;;;;;19.00;16.83;;;;;;;22.23;88.89;100172.00;5016740;28;20033;-70
2021/06/23 01:06:19;;;;;;;19.27;17.45;;;;;;;22.08;90.03;100161.72;5034560;28;20056;-71
2021/06/23 01:08:45;;;;;;;18.23;16.63;;;;;;;22.32;88.79;100168.34;5034565;28;20477;-69
2021/06/23 01:11:10;;;;;;;18.58;16.80;;;;;;;22.30;88.76;100170.13;5031313;28;20022;-71
2021/06/23 01:13:42;;;;;;;18.50;16.58;;;;;;;22.40;88.16;100171.75;5039063;28;20032;-72
2021/06/23 01:16:10;;;;;;;18.42;16.63;;;;;;;22.56;87.19;100176.75;5053633;28;20024;-70
2021/06/23 01:18:37;;;;;;;18.48;16.75;;;;;;;22.48;87.34;100162.88;5054009;28;20025;-72
2021/06/23 01:21:04;;;;;;;18.60;16.30;;;;;;;22.41;87.58;100168.22;5031515;28;20128;-69
2021/06/23 01:23:30;;;;;;;17.77;16.13;;;;;;;22.63;86.50;100170.50;5014893;28;20033;-72
2021/06/23 01:25:55;;;;;;;17.98;16.15;;;;;;;22.84;84.97;100168.34;5031622;28;20506;-71
2021/06/23 01:28:21;;;;;;;17.30;15.73;;;;;;;22.92;84.67;100177.00;5031503;28;20116;-69
2021/06/23 01:31:06;;;;;;;17.75;15.95;;;;;;;;;;4991988;28;20125;-72
2021/06/23 01:33:33;;;;;;;16.98;15.25;;;;;;;22.67;84.03;100130.06;4992010;28;20157;-70
2021/06/23 01:35:59;;;;;;;17.20;15.52;;;;;;;22.64;85.33;100171.34;4988071;28;20049;-72
2021/06/23 01:38:25;;;;;;;17.20;15.50;;;;;;;22.72;85.28;100166.84;4960583;28;20034;-71
2021/06/23 01:40:52;;;;;;;16.85;15.45;;;;;;;22.89;84.22;100170.03;4983766;28;20049;-72
2021/06/23 01:43:18;;;;;;;17.13;15.32;;;;;;;22.89;84.12;100169.13;4971868;28;20027;-71
2021/06/23 01:45:47;;;;;;;17.50;15.75;;;;;;;22.94;83.90;100167.28;4972176;28;20045;-71
2021/06/23 01:48:18;;;;;;;17.10;15.40;;;;;;;22.83;83.79;100158.72;4973443;28;20105;-71
2021/06/23 01:51:00;;;;;;;17.55;15.82;;;;;;;22.77;83.28;100123.72;4973815;28;20413;-69
2021/06/23 01:53:26;;;;;;;16.67;15.18;;;;;;;22.71;83.37;100113.31;4991630;28;20557;-72
2021/06/23 01:55:53;;;;;;;18.15;16.42;;;;;;;22.97;84.00;100168.97;4991007;28;20026;-71
2021/06/23 01:58:19;;;;;;;18.60;16.70;;;;;;;22.98;83.51;100168.97;4991473;28;20027;-72
2021/06/23 02:00:58;;;;;;;17.52;15.90;;;;;;;22.71;83.72;100129.13;4991337;28;20186;-70
2021/06/23 02:03:51;;;;;;;17.02;15.32;;;;;;;23.04;83.22;100163.59;5033677;28;20025;-71
2021/06/23 02:06:25;;;;;;;18.40;15.82;;;;;;;23.12;82.71;100162.59;5033057;28;20547;-73
2021/06/23 02:09:14;;;;;;;17.33;15.63;;;;;;;23.19;82.55;100170.34;5031841;28;20045;-71
2021/06/23 02:11:47;;;;;;;18.17;14.95;;;;;;;23.29;81.88;100171.03;5037517;28;20553;-75
2021/06/23 02:14:40;;;;;;;18.08;16.00;;;;;;;23.32;81.67;100178.88;5053030;28;20025;-71
2021/06/23 02:17:08;;;;;;;17.88;14.52;;;;;;;23.33;81.17;100175.34;5028567;28;20024;-69
2021/06/23 02:19:54;;;;;;;16.30;14.65;;;;;;;23.02;81.35;100106.59;5029513;28;20471;-71
2021/06/23 02:22:23;;;;;;;16.83;15.02;;;;;;;23.46;80.79;100161.91;5023799;28;20033;-70
2021/06/23 02:24:52;;;;;;;16.90;14.38;;;;;;;23.54;80.19;100157.31;5028928;28;20091;-70
2021/06/23 02:27:18;;;;;;;16.97;15.20;;;;;;;23.42;80.22;100159.31;5033069;28;20029;-72
2021/06/23 02:29:45;;;;;;;16.05;14.60;;;;;;;23.46;80.50;100170.66;5033444;28;20831;-72
2021/06/23 02:32:15;;;;;;;17.23;15.43;;;;;;;23.51;80.18;100167.94;5032946;28;20049;-69
2021/06/23 02:34:41;;;;;;;16.27;14.77;;;;;;;23.53;80.20;100171.44;5032891;28;20497;-72
2021/06/23 02:37:09;;;;;;;18.10;14.57;;;;;;;23.38;79.79;100131.31;5033079;28;20055;-72
2021/06/23 02:39:36;;;;;;;16.52;14.73;;;;;;;23.57;79.72;100152.84;5032796;28;20021;-69
2021/06/23 02:42:02;;;;;;;15.95;14.55;;;;;;;23.51;79.77;100168.81;5032912;28;20422;-72
2021/06/23 02:44:27;;;;;;;19.85;15.13;;;;;;;23.20;81.38;100181.75;5032826;28;20025;-69
2021/06/23 02:46:53;;;;;;;18.00;14.32;;;;;;;22.80;83.17;100177.22;5029236;28;20084;-71
2021/06/23 02:49:19;;;;;;;16.77;15.07;;;;;;;22.61;83.44;100153.88;5032420;28;20076;-73
2021/06/23 02:51:45;;;;;;;20.33;14.70;;;;;;;22.35;85.63;100185.84;5032318;28;20017;-69
2021/06/23 02:54:11;;;;;;;18.10;14.73;;;;;;;22.41;84.95;100176.13;5032705;28;20029;-74
2021/06/23 02:56:37;;;;;;;16.75;15.13;;;;;;;22.39;84.98;100184.94;5032119;28;20456;-72
2021/06/23 02:59:04;;;;;;;17.15;15.35;;;;;;;22.19;85.52;100187.84;5032888;28;20091;-70
2021/06/23 03:01:30;;;;;;;17.73;15.15;;;;;;;21.79;86.67;100129.75;5032048;28;20017;-69
2021/06/23 03:03:57;;;;;;;21.17;15.05;;;;;;;22.08;86.11;100170.50;5032366;28;20036;-72
2021/06/23 03:06:23;;;;;;;17.92;15.15;;;;;;;22.23;85.70;100184.28;5014793;28;20394;-71
2021/06/23 03:08:49;;;;;;;22.70;15.20;;;;;;;22.12;85.48;100151.13;5032285;28;20136;-69
2021/06/23 03:11:15;;;;;;;18.77;14.93;;;;;;;22.51;85.27;100199.66;5032118;28;20100;-73
2021/06/23 03:13:40;;;;;;;16.35;14.70;;;;;;;22.58;84.64;100201.25;5031924;28;20040;-74
2021/06/23 03:16:06;;;;;;;16.83;15.05;;;;;;;22.74;84.08;100197.50;5031826;28;20021;-72
2021/06/23 03:18:32;;;;;;;16.25;14.43;;;;;;;22.86;83.71;100212.19;5032103;28;20022;-73
2021/06/23 03:21:03;;;;;;;15.98;14.32;;;;;;;22.96;82.70;100217.28;5032102;28;20383;-72
2021/06/23 03:23:29;;;;;;;16.15;14.45;;;;;;;22.99;83.18;100220.75;5025815;28;20061;-73
2021/06/23 03:25:55;;;;;;;16.02;14.38;;;;;;;23.02;82.88;100218.03;5028961;28;20052;-74
2021/06/23 03:28:21;;;;;;;16.65;14.98;;;;;;;23.06;83.02;100213.59;5032195;28;20048;-69
2021/06/23 03:30:46;;;;;;;17.85;15.98;;;;;;;22.93;82.55;100184.00;5028284;28;20057;-72
2021/06/23 03:33:12;;;;;;;22.80;16.27;;;;;;;23.27;82.45;100228.13;5021651;28;20043;-72
2021/06/23 03:35:38;;;;;;;18.55;16.67;;;;;;;23.24;83.71;100230.81;5030702;28;20113;-72
2021/06/23 03:38:03;;;;;;;21.30;18.13;;;;;;;22.70;86.91;100195.78;4996856;28;20037;-71
2021/06/23 03:40:29;;;;;;;22.30;19.95;;;;;;;22.71;88.42;100215.94;4997003;28;20033;-69
2021/06/23 03:42:55;;;;;;;24.98;20.80;;;;;;;22.38;89.26;100178.81;5014062;28;20029;-76
2021/06/23 03:45:20;;;;;;;24.55;19.17;;;;;;;22.62;89.61;100224.00;5031748;28;20384;-70
2021/06/23 03:47:46;;;;;;;25.30;20.90;;;;;;;22.56;89.76;100219.72;5029837;28;20038;-71
2021/06/23 03:50:14;;;;;;;26.60;22.30;;;;;;;22.28;90.79;100206.97;5028008;28;20032;-73
2021/06/23 03:52:39;;;;;;;28.98;24.33;;;;;;;21.95;93.89;100201.31;5028915;28;20026;-70
2021/06/23 03:55:08;;;;;;;24.13;21.60;;;;;;;22.06;93.99;100200.31;5031686;28;20024;-72
2021/06/23 03:57:34;;;;;;;25.40;21.27;;;;;;;22.29;93.40;100211.34;5031658;28;20033;-70
2021/06/23 03:59:59;;;;;;;27.73;21.75;;;;;;;22.53;92.72;100213.63;5031594;28;20029;-70
2021/06/23 04:02:25;;;;;;;24.20;20.98;;;;;;;22.67;91.39;100219.53;5031469;28;20487;-70
2021/06/23 04:04:50;;;;;;;26.48;21.50;;;;;;;22.93;90.13;100239.28;5013665;28;20080;-74
2021/06/23 04:07:15;;;;;;;23.45;20.17;;;;;;;22.88;88.71;100220.94;5031317;28;20022;-73
2021/06/23 04:09:41;;;;;;;31.05;20.48;;;;;;;23.04;88.23;100245.22;5031909;28;20046;-78
2021/06/23 04:12:08;;;;;;;24.50;19.98;;;;;;;23.20;86.92;100247.59;5031025;28;20567;-69
2021/06/23 04:14:34;;;;;;;25.98;20.15;;;;;;;23.24;86.58;100252.78;4996549;28;20069;-77
2021/06/23 04:16:59;;;;;;;25.25;20.33;;;;;;;23.26;86.86;100243.09;5031470;28;20099;-78
2021/06/23 04:19:25;;;;;;;22.00;19.27;;;;;;;23.11;86.77;100222.25;5031354;28;20029;-70
2021/06/23 04:21:50;;;;;;;21.70;19.58;;;;;;;23.23;87.09;100240.50;5030759;28;20097;-72
2021/06/23 04:24:16;;;;;;;21.33;18.95;;;;;;;23.05;85.77;100212.72;4996141;28;20029;-72
2021/06/23 04:26:43;;;;;;;20.70;18.52;;;;;;;23.21;86.31;100241.44;5031042;28;20498;-74
2021/06/23 04:29:09;;;;;;;23.98;17.85;;;;;;;22.94;85.68;100204.13;5016748;28;20139;-78
2021/06/23 04:31:37;;;;;;;22.63;18.05;;;;;;;23.03;85.59;100225.03;5031651;28;20025;-73
2021/06/23 04:34:02;;;;;;;23.15;18.17;;;;;;;23.29;85.12;100247.44;5034667;28;20506;-73
2021/06/23 04:36:28;;;;;;;19.75;17.75;;;;;;;23.38;84.92;100268.31;5034575;28;20029;-74
2021/06/23 04:38:53;;;;;;;19.52;17.58;;;;;;;23.06;84.52;100205.69;5015990;28;20391;-72
2021/06/23 04:41:19;;;;;;;20.67;18.55;;;;;;;23.25;84.96;100251.88;5035169;28;20052;-75
2021/06/23 04:43:45;;;;;;;20.65;18.55;;;;;;;23.07;86.11;100263.56;5034208;28;20030;-74
2021/06/23 04:46:10;;;;;;;21.58;19.17;;;;;;;22.96;86.65;100259.41;5033363;28;20101;-73
2021/06/23 04:48:36;;;;;;;21.00;18.48;;;;;;;23.09;86.53;100267.06;5032540;28;20015;-77
2021/06/23 04:51:02;;;;;;;20.55;18.40;;;;;;;23.02;86.13;100261.94;5032859;28;20420;-75
2021/06/23 04:53:27;;;;;;;20.70;18.42;;;;;;;22.71;86.03;100228.25;5033911;28;20091;-76
2021/06/23 04:55:54;;;;;;;20.20;18.08;;;;;;;23.10;86.02;100274.06;5034190;28;20049;-76
2021/06/23 04:58:20;;;;;;;20.55;18.42;;;;;;;23.00;86.11;100267.22;5016028;28;20468;-77
2021/06/23 05:00:45;;;;;;;20.55;18.02;;;;;;;22.87;86.67;100253.41;4982706;28;20091;-76
2021/06/23 05:03:11;;;;;;;21.50;19.27;;;;;;;23.04;86.66;100276.81;5035778;28;20025;-76
2021/06/23 05:05:36;;;;;;;21.02;18.13;;;;;;;23.10;86.38;100268.81;5035143;28;20021;-74
2021/06/23 05:08:03;;;;;;;22.02;18.00;;;;;;;23.17;86.90;100264.31;5034120;28;20195;-74
2021/06/23 05:10:28;;;;;;;20.05;18.15;;;;;;;23.21;86.87;100265.97;5033751;28;20494;-73
2021/06/23 05:12:53;;;;;;;19.00;17.17;;;;;;;23.33;86.55;100264.91;5032836;28;20026;-75
2021/06/23 05:15:19;;;;;;;20.52;18.40;;;;;;;23.29;86.41;100241.28;4996744;28;20071;-77
2021/06/23 05:17:45;;;;;;;18.33;16.52;;;;;;;23.41;86.30;100257.72;5033233;28;20021;-77
2021/06/23 05:20:11;;;;;;;18.75;16.90;;;;;;;23.52;86.47;100267.19;5033540;28;20030;-75
2021/06/23 05:22:36;;;;;;;18.90;16.92;;;;;;;23.36;86.46;100238.47;5033158;28;20018;-75
2021/06/23 05:25:03;;;;;;;19.42;16.73;;;;;;;23.69;86.51;100272.09;5033314;28;20016;-85
2021/06/23 05:27:28;;;;;;;21.88;16.77;;;;;;;23.66;86.02;100267.75;5033431;28;20104;-87
2021/06/23 05:29:54;;;;;;;18.15;16.25;;;;;;;23.75;86.79;100277.22;5033348;28;20101;-84
2021/06/23 05:32:19;;;;;;;18.13;16.40;;;;;;;23.74;86.26;100264.97;5033030;28;20029;-75
2021/06/23 05:34:45;;;;;;;18.40;16.15;;;;;;;23.99;85.08;100275.00;5033938;28;20079;-78
2021/06/23 05:37:10;;;;;;;17.90;16.13;;;;;;;23.87;85.06;100233.94;5033680;28;20474;-76
2021/06/23 05:39:36;;;;;;;16.33;14.75;;;;;;;24.20;85.31;100278.94;5033644;28;20026;-76
2021/06/23 05:42:02;;;;;;;16.92;15.13;;;;;;;24.19;84.81;100264.03;5033759;28;20113;-78
2021/06/23 05:44:28;;;;;;;18.25;15.25;;;;;;;24.22;84.60;100266.59;5032121;28;20405;-74
2021/06/23 05:46:54;;;;;;;17.00;15.07;;;;;;;24.30;84.71;100284.88;5033261;28;20423;-73
2021/06/23 05:49:20;;;;;;;16.80;14.82;;;;;;;24.39;84.81;100282.03;5033850;28;20472;-75
2021/06/23 05:51:46;;;;;;;17.02;15.25;;;;;;;24.36;84.43;100271.53;5015192;28;20022;-73
2021/06/23 05:54:11;;;;;;;17.75;15.07;;;;;;;24.47;83.89;100289.78;5032795;28;20041;-78
2021/06/23 05:56:37;;;;;;;18.83;15.43;;;;;;;24.53;83.92;100289.63;5031949;28;20018;-78
2021/06/23 05:59:03;;;;;;;18.08;16.27;;;;;;;24.57;84.00;100288.63;5014788;28;20029;-76
2021/06/23 06:01:30;;;;;;;20.20;17.02;;;;;;;24.49;83.53;100245.75;5032331;28;20105;-76
2021/06/23 06:03:56;;;;;;;19.05;16.88;;;;;;;24.70;83.80;100269.00;5033091;28;20026;-74
2021/06/23 06:06:21;;;;;;;22.67;19.27;;;;;;;24.87;82.54;100271.22;5032572;28;20028;-76
2021/06/23 06:08:47;;;;;;;21.92;19.75;;;;;;;24.76;81.83;100253.91;5032593;28;20033;-74
2021/06/23 06:11:12;;;;;;;22.13;19.88;;;;;;;24.67;83.17;100253.25;5032656;28;20017;-78
2021/06/23 06:13:40;;;;;;;17.75;15.98;;;;;;;25.10;82.43;100290.03;5015641;28;20471;-70
2021/06/23 06:16:06;;;;;;;19.63;17.60;;;;;;;25.24;82.16;100290.50;5032667;28;20029;-76
2021/06/23 06:18:31;;;;;;;20.38;17.63;;;;;;;25.40;80.94;100291.00;5033107;28;20459;-70
2021/06/23 06:20:58;;;;;;;18.33;16.73;;;;;;;25.57;79.95;100290.53;5033213;28;20057;-71
2021/06/23 06:23:25;;;;;;;23.08;17.52;;;;;;;25.68;78.91;100301.66;5033402;28;20029;-73
2021/06/23 06:25:51;;;;;;;18.70;15.73;;;;;;;25.53;78.30;100262.44;5032823;28;20025;-74
2021/06/23 06:28:17;;;;;;;15.93;14.07;;;;;;;25.74;78.55;100300.63;5032974;28;20020;-73
2021/06/23 06:30:42;;;;;;;15.63;14.02;;;;;;;25.83;78.33;100296.84;5032317;28;20025;-78
2021/06/23 06:33:08;;;;;;;15.45;13.73;;;;;;;25.90;78.03;100303.69;5031416;28;20036;-79
2021/06/23 06:35:34;;;;;;;14.63;13.18;;;;;;;26.02;77.19;100299.81;5031672;28;20108;-78
2021/06/23 06:38:00;;;;;;;15.75;14.15;;;;;;;26.05;77.17;100304.16;5032224;28;20083;-76
2021/06/23 06:40:26;;;;;;;19.60;14.63;;;;;;;26.08;77.84;100299.66;5032340;28;20452;-78
2021/06/23 06:42:52;;;;;;;18.20;16.50;;;;;;;26.28;79.17;100307.00;5032428;28;20022;-75
2021/06/23 06:45:18;;;;;;;18.90;17.00;;;;;;;26.41;79.06;100299.53;5032024;28;20467;-74
2021/06/23 06:47:44;;;;;;;20.48;16.17;;;;;;;26.45;78.61;100289.72;5031376;28;20090;-78
2021/06/23 06:50:10;;;;;;;18.95;16.70;;;;;;;26.48;77.85;100273.72;5032381;28;20471;-75
2021/06/23 06:52:35;;;;;;;23.17;17.90;;;;;;;26.66;78.36;100272.25;5032307;28;20041;-74
2021/06/23 06:55:01;;;;;;;17.45;15.68;;;;;;;26.63;76.17;100270.59;5014248;28;20017;-77
2021/06/23 06:57:27;;;;;;;17.83;15.82;;;;;;;26.80;77.00;100291.25;5032097;28;20383;-77
2021/06/23 06:59:52;;;;;;;17.73;15.73;;;;;;;26.80;75.40;100288.59;5031765;28;20499;-75
2021/06/23 07:02:18;;;;;;;17.05;15.23;;;;;;;26.88;76.20;100284.81;5032186;28;20014;-77
2021/06/23 07:04:43;;;;;;;12.82;11.52;;;;;;;26.94;73.33;100287.25;5032126;28;20021;-75
2021/06/23 07:07:09;;;;;;;14.38;12.15;;;;;;;26.76;72.37;100259.63;5031999;28;20028;-78
2021/06/23 07:09:34;;;;;;;14.77;12.35;;;;;;;26.84;74.58;100294.63;5013829;28;20122;-75
2021/06/23 07:12:00;;;;;;;13.50;12.30;;;;;;;26.71;73.54;100290.66;5031745;28;20448;-75
2021/06/23 07:14:25;;;;;;;13.35;11.68;;;;;;;26.70;73.31;100289.75;5015101;28;20484;-77
2021/06/23 07:16:51;;;;;;;14.27;12.80;;;;;;;26.80;72.49;100296.53;5032124;28;20036;-77
2021/06/23 07:19:16;;;;;;;18.20;12.63;;;;;;;26.77;70.83;100293.13;5032043;28;20056;-75
2021/06/23 07:21:42;;;;;;;15.52;11.25;;;;;;;26.95;70.47;100288.97;5031724;28;20416;-78
2021/06/23 07:24:08;;;;;;;14.45;12.95;;;;;;;27.06;73.16;100288.63;5032050;28;20009;-76
2021/06/23 07:26:33;;;;;;;16.23;12.55;;;;;;;27.00;73.31;100257.03;5031957;28;20049;-79
2021/06/23 07:29:02;;;;;;;15.77;12.45;;;;;;;27.11;71.67;100270.78;5013243;28;20039;-78
2021/06/23 07:36:35;;;;;;;13.90;12.48;;;;;;;27.24;70.18;100290.63;5031667;28;20033;-77
2021/06/23 07:39:06;;;;;;;16.08;12.25;;;;;;;27.39;72.16;100298.94;5031461;28;20048;-79
2021/06/23 07:41:32;;;;;;;14.27;12.77;;;;;;;27.20;70.91;100259.84;5031569;28;20199;-77
2021/06/23 07:43:58;;;;;;;14.43;13.02;;;;;;;27.32;67.54;100250.59;5031682;28;20096;-78
2021/06/23 07:46:25;;;;;;;13.25;11.85;;;;;;;27.62;67.69;100298.16;5029827;28;20033;-79
2021/06/23 07:48:52;;;;;;;13.88;12.40;;;;;;;27.78;68.80;100298.44;5031610;28;20076;-79
2021/06/23 07:51:21;;;;;;;13.98;12.57;;;;;;;27.92;70.85;100301.44;5012487;28;20037;-76
2021/06/23 08:12:54;;;;;;;17.07;12.50;;;;;;;28.50;65.12;100280.63;4911919;29;20516;-73
2021/06/23 08:15:20;;;;;;;12.98;11.73;;;;;;;28.70;67.55;100314.41;4923141;29;20070;-75
2021/06/23 08:17:46;;;;;;;13.27;11.02;;;;;;;28.66;65.36;100310.09;4920027;29;20039;-76
2021/06/23 08:20:12;;;;;;;14.35;11.32;;;;;;;28.81;66.30;100305.97;4913498;29;20095;-76
2021/06/23 08:22:38;;;;;;;13.88;10.98;;;;;;;28.92;64.11;100294.91;4911590;29;20044;-74
2021/06/23 08:25:04;;;;;;;14.07;10.52;;;;;;;28.95;65.93;100292.97;4912309;29;20051;-72
2021/06/23 08:27:29;;;;;;;13.15;10.00;;;;;;;29.17;64.38;100297.34;4912362;29;20558;-72
2021/06/23 08:29:55;;;;;;;13.30;10.30;;;;;;;29.05;64.18;100270.38;4912472;29;20033;-78
2021/06/23 08:32:20;;;;;;;13.70;10.10;;;;;;;29.27;62.48;100281.88;4912489;29;20537;-72
2021/06/23 08:34:46;;;;;;;15.23;9.95;;;;;;;29.30;62.69;100292.41;4912876;29;20032;-73
2021/06/23 08:37:11;;;;;;;11.40;9.45;;;;;;;29.26;61.25;100286.34;4948972;28;20529;-72
2021/06/23 08:39:37;;;;;;;15.60;9.05;;;;;;;29.24;62.25;100274.91;4950588;29;20509;-73
2021/06/23 08:42:03;;;;;;;14.43;10.20;;;;;;;29.69;61.38;100299.53;4950319;28;20038;-72
2021/06/23 08:44:28;;;;;;;13.70;9.50;;;;;;;29.78;59.84;100298.25;4950309;28;20401;-75
2021/06/23 08:46:54;;;;;;;13.32;9.23;;;;;;;29.93;61.65;100288.72;4950391;28;20032;-77
2021/06/23 08:49:20;;;;;;;14.75;8.88;;;;;;;29.97;61.61;100283.19;4971189;28;20038;-72
2021/06/23 08:51:46;;;;;;;15.85;9.10;;;;;;;30.01;60.73;100279.44;5012653;28;20017;-75
2021/06/23 08:54:12;;;;;;;17.95;9.77;;;;;;;30.16;59.66;100277.00;5030042;28;20034;-75
2021/06/23 08:56:38;;;;;;;14.85;9.80;;;;;;;30.31;62.92;100275.38;5030444;28;20052;-73
2021/06/23 08:59:04;;;;;;;17.25;9.55;;;;;;;30.39;60.13;100278.50;5030680;28;20025;-75
2021/06/23 09:01:33;;;;;;;13.80;9.15;;;;;;;30.44;62.64;100276.47;5030645;28;20104;-74
2021/06/23 09:04:07;;;;;;;13.55;8.00;;;;;;;30.40;57.61;100277.59;5030360;28;21185;-74
2021/06/23 09:06:45;;;;;;;12.40;9.23;;;;;;;30.53;58.91;100269.91;5030135;28;20029;-72
2021/06/23 09:09:16;;;;;;;18.23;8.85;;;;;;;30.62;59.18;100268.56;5029832;28;20041;-72
2021/06/23 09:11:42;;;;;;;15.13;8.30;;;;;;;30.68;57.74;100246.06;5029653;28;20068;-72
2021/06/23 09:14:15;;;;;;;14.02;8.20;;;;;;;30.72;58.95;100237.84;5029839;28;20472;-72
2021/06/23 09:17:04;;;;;;;17.75;7.93;;;;;;;30.99;58.76;100261.34;5030503;28;20028;-72
2021/06/23 09:19:31;;;;;;;18.38;9.07;;;;;;;31.10;61.28;100264.34;5034125;28;20036;-71
2021/06/23 09:21:57;;;;;;;13.25;8.05;;;;;;;31.14;58.46;100257.94;5034076;28;20025;-72
2021/06/23 09:24:39;;;;;;;12.88;8.27;;;;;;;31.19;57.79;100257.69;5034172;28;20079;-71
2021/06/23 09:27:19;;;;;;;19.35;8.70;;;;;;;31.34;60.27;100245.34;5034074;28;20021;-77
2021/06/23 09:29:45;;;;;;;14.00;8.23;;;;;;;31.41;60.14;100235.19;4982433;28;20490;-74
2021/06/23 09:32:11;;;;;;;16.00;8.15;;;;;;;31.50;56.08;100255.19;5034029;28;20108;-76
2021/06/23 09:34:39;;;;;;;12.93;7.88;;;;;;;31.39;55.97;100258.41;5034287;28;20032;-76
2021/06/23 09:37:34;;;;;;;18.33;8.05;;;;;;;31.43;55.99;100250.16;5034067;28;20025;-73
2021/06/23 09:40:15;;;;;;;15.70;8.13;;;;;;;31.61;55.58;100253.63;5023488;28;20033;-75
2021/06/23 09:42:47;;;;;;;16.77;8.20;;;;;;;31.29;55.56;100208.25;5033809;28;20017;-75
2021/06/23 09:45:15;;;;;;;21.05;8.25;;;;;;;31.48;54.92;100220.59;5033471;28;20045;-76
2021/06/23 09:47:41;;;;;;;17.17;8.40;;;;;;;31.83;55.96;100244.50;5033046;28;20075;-75
2021/06/23 09:50:09;;;;;;;16.63;8.38;;;;;;;31.60;54.94;100209.25;5033077;28;20041;-74
2021/06/23 09:52:36;;;;;;;17.00;8.57;;;;;;;32.08;56.97;100256.47;4997591;28;20064;-73
2021/06/23 09:55:03;;;;;;;15.02;8.00;;;;;;;32.36;53.60;100246.88;5031859;28;20030;-75
2021/06/23 09:57:29;;;;;;;16.38;8.07;;;;;;;32.54;53.68;100237.81;4981563;28;20116;-75
2021/06/23 10:00:09;;;;;;;14.82;8.05;;;;;;;32.66;55.69;100233.56;5032299;28;20100;-73
2021/06/23 10:02:35;;;;;;;23.73;8.48;;;;;;;32.26;54.21;100226.06;5032570;28;20025;-76
2021/06/23 10:05:23;;;;;;;15.07;8.43;;;;;;;32.50;52.41;100214.00;5031794;28;20505;-74
2021/06/23 10:07:49;;;;;;;15.63;8.20;;;;;;;32.67;53.94;100216.53;5031983;28;20459;-72
2021/06/23 10:10:22;;;;;;;21.08;8.55;;;;;;;32.83;51.83;100216.50;5030556;28;20033;-75
2021/06/23 10:12:53;;;;;;;19.85;8.57;;;;;;;32.80;51.62;100215.84;5031763;28;20032;-74
2021/06/23 10:15:20;;;;;;;16.05;8.57;;;;;;;32.91;53.09;100218.72;5031505;28;20072;-75
2021/06/23 10:17:46;;;;;;;26.35;8.77;;;;;;;32.80;52.22;100215.84;5031319;28;20056;-75
2021/06/23 10:20:14;;;;;;;20.92;8.65;;;;;;;32.53;51.63;100204.00;5031814;28;20112;-75
2021/06/23 10:22:42;;;;;;;21.13;7.90;;;;;;;32.85;51.22;100219.97;5017372;28;20041;-74
2021/06/23 10:25:10;;;;;;;19.65;8.82;;;;;;;33.04;53.81;100213.50;5031763;28;20041;-74
2021/06/23 10:27:40;;;;;;;19.80;8.82;;;;;;;32.88;49.28;100229.63;5030913;28;20060;-74
2021/06/23 10:30:07;;;;;;;15.95;8.38;;;;;;;32.71;52.43;100191.38;5030988;28;20030;-76
2021/06/23 10:32:32;;;;;;;18.42;8.68;;;;;;;32.97;50.18;100172.03;5031071;28;20124;-76
2021/06/23 10:34:58;;;;;;;21.10;8.40;;;;;;;32.94;51.37;100191.81;5031805;28;20106;-76
2021/06/23 10:37:27;;;;;;;18.45;8.10;;;;;;;33.38;51.58;100214.09;5031214;28;20048;-76
2021/06/23 10:39:53;;;;;;;19.52;7.88;;;;;;;33.43;50.10;100220.00;5031057;28;20027;-75
2021/06/23 10:42:24;;;;;;;18.55;8.88;;;;;;;33.35;47.77;100207.13;5030123;28;20025;-74
2021/06/23 10:44:55;;;;;;;19.45;8.90;;;;;;;33.64;50.66;100217.78;5030777;28;20026;-76
2021/06/23 10:47:30;;;;;;;16.10;8.48;;;;;;;33.43;50.33;100190.56;5030892;28;20045;-77
2021/06/23 10:49:57;;;;;;;21.85;8.68;;;;;;;33.01;51.01;100195.81;5030531;28;20018;-76
2021/06/23 10:52:22;;;;;;;21.50;9.52;;;;;;;32.96;50.67;100213.09;5030246;28;20037;-80
2021/06/23 10:54:55;;;;;;;18.17;10.02;;;;;;;32.64;52.62;100214.06;5030421;28;20025;-81
2021/06/23 10:57:26;;;;;;;16.58;8.45;;;;;;;32.61;53.17;100227.59;5040547;28;20029;-80
2021/06/23 10:59:56;;;;;;;18.42;9.00;;;;;;;32.30;52.90;100236.56;5031232;28;20378;-80
2021/06/23 11:02:34;;;;;;;13.77;8.48;;;;;;;32.23;53.30;100238.72;5031181;28;20029;-76
2021/06/23 11:05:03;;;;;;;21.20;9.23;;;;;;;32.78;55.04;100231.13;5030074;28;20036;-75
2021/06/23 11:07:37;;;;;;;19.73;8.38;;;;;;;33.27;51.04;100230.78;5030200;28;20598;-75
2021/06/23 11:10:39;;;;;;;21.20;9.38;;;;;;;33.02;51.87;100237.66;5029755;28;20037;-76
2021/06/23 11:13:06;;;;;;;22.55;8.68;;;;;;;33.02;51.34;100232.31;4950553;28;20031;-77
2021/06/23 11:15:32;;;;;;;18.27;8.25;;;;;;;32.51;50.00;100227.31;4950469;28;20027;-77
2021/06/23 11:18:22;;;;;;;17.48;8.80;;;;;;;32.46;50.04;100224.03;4949673;28;20066;-76
2021/06/23 11:21:01;;;;;;;17.77;8.38;;;;;;;32.66;51.51;100219.31;4950408;28;20023;-77
2021/06/23 11:23:47;;;;;;;19.23;8.38;;;;;;;33.21;49.21;100221.34;4950352;28;20104;-77
2021/06/23 11:26:18;;;;;;;15.35;7.78;;;;;;;33.46;49.07;100209.13;4950266;28;20046;-77
2021/06/23 11:28:45;;;;;;;17.27;8.50;;;;;;;33.57;47.53;100219.13;4949846;28;20065;-76
2021/06/23 11:31:11;;;;;;;24.63;7.93;;;;;;;33.53;49.09;100221.13;4950127;28;20416;-77
2021/06/23 11:33:36;;;;;;;17.50;7.40;;;;;;;33.70;47.05;100184.44;4949994;28;20034;-75
2021/06/23 11:36:01;;;;;;;21.58;8.85;;;;;;;34.28;46.38;100208.34;4949159;28;20102;-77
2021/06/23 11:38:27;;;;;;;17.15;8.05;;;;;;;34.28;44.93;100201.19;4949547;28;20119;-77